createdAt,value
2022-08-22T00:01:15.017Z,1.50
2022-08-22T00:02:41.539Z,1.90
2022-08-22T00:02:53.534Z,1.73
2022-08-22T00:03:10.472Z,1.75
2022-08-22T00:03:11.735Z,1.35
2022-08-22T00:03:57.884Z,1.70
2022-08-22T00:06:37.246Z,1.50
2022-08-22T00:09:19.774Z,1.60
2022-08-22T00:11:54.385Z,1.50
2022-08-22T00:14:36.719Z,1.83
2022-08-22T00:17:16.820Z,1.77
2022-08-22T00:19:53.174Z,1.57
2022-08-22T00:22:27.674Z,1.67
2022-08-22T00:25:02.700Z,1.60
2022-08-22T00:27:45.006Z,1.47
2022-08-22T00:30:18.525Z,1.80
2022-08-22T00:32:52.169Z,1.63
2022-08-22T00:35:26.631Z,1.40
2022-08-22T00:38:03.878Z,1.50
2022-08-22T00:40:44.221Z,1.80
2022-08-22T00:43:47.977Z,1.70
2022-08-22T00:46:45.763Z,1.50
2022-08-22T00:49:30.425Z,1.77
2022-08-22T00:52:27.142Z,1.80
2022-08-22T00:55:19.053Z,1.60
2022-08-22T00:58:06.505Z,1.60
2022-08-22T01:00:43.328Z,1.70
2022-08-22T01:03:50.568Z,1.90
2022-08-22T01:06:25.877Z,1.70
2022-08-22T01:09:06.357Z,1.77
2022-08-22T01:11:51.395Z,1.63
2022-08-22T01:14:37.854Z,1.83
2022-08-22T01:17:28.758Z,1.50
2022-08-22T01:20:28.366Z,1.60
2022-08-22T01:23:34.382Z,1.70
2022-08-22T01:26:43.966Z,1.67
2022-08-22T01:29:37.591Z,1.90
2022-08-22T01:32:39.881Z,1.70
2022-08-22T01:35:58.124Z,1.87
2022-08-22T01:38:56.146Z,1.80
2022-08-22T01:41:59.601Z,1.70
2022-08-22T01:44:49.908Z,1.50
2022-08-22T01:47:22.601Z,2.00
2022-08-22T01:49:57.284Z,1.63
2022-08-22T01:52:39.094Z,1.60
2022-08-22T01:55:12.979Z,1.70
2022-08-22T01:57:54.617Z,1.67
2022-08-22T02:00:35.372Z,1.77
2022-08-22T02:03:20.783Z,1.70
2022-08-22T02:06:00.174Z,1.80
2022-08-22T02:08:39.835Z,1.70
2022-08-22T02:11:12.076Z,1.50
2022-08-22T02:13:56.163Z,1.60
2022-08-22T02:16:34.216Z,2.17
2022-08-22T02:19:13.121Z,1.70
2022-08-22T02:21:49.465Z,1.87
2022-08-22T02:24:26.813Z,1.97
2022-08-22T02:27:11.637Z,1.50
2022-08-22T02:29:48.024Z,1.60
2022-08-22T02:32:27.812Z,2.23
2022-08-22T02:35:04.529Z,1.87
2022-08-22T02:37:38.128Z,2.00
2022-08-22T02:40:19.224Z,1.80
2022-08-22T02:42:56.828Z,1.53
2022-08-22T02:45:38.740Z,1.90
2022-08-22T02:48:18.044Z,1.40
2022-08-22T02:50:53.221Z,1.77
2022-08-22T02:53:30.665Z,1.80
2022-08-22T02:56:05.500Z,1.60
2022-08-22T02:58:44.793Z,1.80
2022-08-22T03:01:25.043Z,2.10
2022-08-22T03:03:54.400Z,1.80
2022-08-22T03:06:37.786Z,1.53
2022-08-22T03:09:22.087Z,1.80
2022-08-22T03:12:06.228Z,1.63
2022-08-22T03:14:44.240Z,1.70
2022-08-22T03:17:21.186Z,1.93
2022-08-22T03:19:57.806Z,1.57
2022-08-22T03:22:36.964Z,2.10
2022-08-22T03:25:15.516Z,2.10
2022-08-22T03:27:53.637Z,2.13
2022-08-22T03:30:33.392Z,1.90
2022-08-22T03:33:18.034Z,1.97
2022-08-22T03:36:06.692Z,2.00
2022-08-22T03:38:53.213Z,1.73
2022-08-22T03:41:52.266Z,2.20
2022-08-22T03:44:59.791Z,1.93
2022-08-22T03:48:02.577Z,1.87
2022-08-22T03:51:02.313Z,2.37
2022-08-22T03:54:08.461Z,1.77
2022-08-22T03:57:11.014Z,1.93
2022-08-22T04:00:10.264Z,2.10
2022-08-22T04:03:10.287Z,2.20
2022-08-22T04:06:12.689Z,2.30
2022-08-22T04:09:22.806Z,2.30
2022-08-22T04:12:13.564Z,1.90
2022-08-22T04:15:21.715Z,2.20
2022-08-22T04:18:22.589Z,2.13
2022-08-22T04:21:43.806Z,2.20
2022-08-22T04:24:35.695Z,2.50
2022-08-22T04:27:09.960Z,2.30
2022-08-22T04:29:46.933Z,2.13
2022-08-22T04:32:23.490Z,2.10
2022-08-22T04:34:58.419Z,2.03
2022-08-22T04:37:36.769Z,2.20
2022-08-22T04:40:12.328Z,2.30
2022-08-22T04:42:45.904Z,2.20
2022-08-22T04:45:19.941Z,2.30
2022-08-22T04:47:55.655Z,2.37
2022-08-22T04:50:30.765Z,2.43
2022-08-22T04:53:12.620Z,2.47
2022-08-22T04:55:51.163Z,2.30
2022-08-22T04:58:35.554Z,2.00
2022-08-22T05:01:13.631Z,2.23
2022-08-22T05:03:48.432Z,2.13
2022-08-22T05:06:21.016Z,2.33
2022-08-22T05:08:53.937Z,2.00
2022-08-22T05:11:25.308Z,2.10
2022-08-22T05:13:58.777Z,2.77
2022-08-22T05:16:32.637Z,2.37
2022-08-22T05:19:04.512Z,2.30
2022-08-22T05:21:41.781Z,2.20
2022-08-22T05:24:13.261Z,2.03
2022-08-22T05:26:50.499Z,2.13
2022-08-22T05:29:24.531Z,2.10
2022-08-22T05:32:01.493Z,2.10
2022-08-22T05:34:35.537Z,2.13
2022-08-22T05:37:12.753Z,2.27
2022-08-22T05:39:47.277Z,2.23
2022-08-22T05:42:22.161Z,2.20
2022-08-22T05:44:51.292Z,2.53
2022-08-22T05:47:25.226Z,2.40
2022-08-22T05:50:02.299Z,2.30
2022-08-22T05:52:46.139Z,1.93
2022-08-22T05:55:26.524Z,2.07
2022-08-22T05:58:20.249Z,2.30
2022-08-22T06:00:53.929Z,2.20
2022-08-22T06:03:29.580Z,2.00
2022-08-22T06:06:00.971Z,2.10
2022-08-22T06:08:36.472Z,2.13
2022-08-22T06:11:12.878Z,2.13
2022-08-22T06:13:48.940Z,2.00
2022-08-22T06:16:26.295Z,1.90
2022-08-22T06:18:55.917Z,1.90
2022-08-22T06:21:37.641Z,2.03
2022-08-22T06:24:14.625Z,2.13
2022-08-22T06:26:49.738Z,2.07
2022-08-22T06:29:31.283Z,1.93
2022-08-22T06:32:03.820Z,2.40
2022-08-22T06:34:37.426Z,2.30
2022-08-22T06:37:11.252Z,2.10
2022-08-22T06:39:46.033Z,2.23
2022-08-22T06:42:17.957Z,2.17
2022-08-22T06:44:53.140Z,1.90
2022-08-22T06:47:26.645Z,2.00
2022-08-22T06:50:02.231Z,2.10
2022-08-22T06:52:36.201Z,2.33
2022-08-22T06:55:09.027Z,2.47
2022-08-22T06:57:44.372Z,2.17
2022-08-22T07:00:17.093Z,2.17
2022-08-22T07:02:50.375Z,2.50
2022-08-22T07:05:22.001Z,2.30
2022-08-22T07:07:54.115Z,2.25
2022-08-22T07:10:26.054Z,1.90
2022-08-22T07:13:00.602Z,2.10
2022-08-22T07:15:35.693Z,2.30
2022-08-22T07:18:09.190Z,2.20
2022-08-22T07:20:42.408Z,3.10
2022-08-22T07:23:15.661Z,2.70
2022-08-22T07:25:56.363Z,2.50
2022-08-22T07:28:51.449Z,2.58
2022-08-22T07:31:37.241Z,2.95
2022-08-22T07:34:40.465Z,3.70
2022-08-22T07:37:15.853Z,3.70
2022-08-22T07:39:52.035Z,3.10
2022-08-22T07:42:31.934Z,3.22
2022-08-22T07:45:07.712Z,3.50
2022-08-22T07:47:51.231Z,3.83
2022-08-22T07:50:26.946Z,3.50
2022-08-22T07:53:06.415Z,3.47
2022-08-22T07:55:41.052Z,3.20
2022-08-22T07:58:23.407Z,3.90
2022-08-22T08:00:54.423Z,3.65
2022-08-22T08:03:25.486Z,3.53
2022-08-22T08:05:55.296Z,3.35
2022-08-22T08:08:27.894Z,3.15
2022-08-22T08:10:59.207Z,3.35
2022-08-22T08:13:33.312Z,3.33
2022-08-22T08:16:02.675Z,3.10
2022-08-22T08:18:37.167Z,3.38
2022-08-22T08:21:08.547Z,3.35
2022-08-22T08:23:39.829Z,3.20
2022-08-22T08:26:12.799Z,3.28
2022-08-22T08:28:45.941Z,2.90
2022-08-22T08:31:25.802Z,3.05
2022-08-22T08:34:01.744Z,3.28
2022-08-22T08:36:38.950Z,3.13
2022-08-22T08:39:16.559Z,3.10
2022-08-22T08:42:17.339Z,2.90
2022-08-22T08:45:15.098Z,2.83
2022-08-22T08:48:09.416Z,3.17
2022-08-22T08:50:50.149Z,2.83
2022-08-22T08:54:06.085Z,2.92
2022-08-22T08:56:47.179Z,2.95
2022-08-22T08:59:29.168Z,2.85
2022-08-22T09:02:23.493Z,3.05
2022-08-22T09:05:37.843Z,2.40
2022-08-22T09:08:38.644Z,2.97
2022-08-22T09:11:34.206Z,2.90
2022-08-22T09:14:19.858Z,2.72
2022-08-22T09:17:06.877Z,2.72
2022-08-22T09:20:15.523Z,2.70
2022-08-22T09:23:14.347Z,3.05
2022-08-22T09:25:50.342Z,2.58
2022-08-22T09:28:28.303Z,2.80
2022-08-22T09:31:21.151Z,2.60
2022-08-22T09:34:14.469Z,2.67
2022-08-22T09:37:17.717Z,2.88
2022-08-22T09:39:59.209Z,2.80
2022-08-22T09:42:39.995Z,3.10
2022-08-22T09:45:50.046Z,2.78
2022-08-22T09:48:44.539Z,2.45
2022-08-22T09:51:32.477Z,2.97
2022-08-22T09:54:16.289Z,2.45
2022-08-22T09:57:00.007Z,3.35
2022-08-22T09:59:45.788Z,3.00
2022-08-22T10:02:30.123Z,3.03
2022-08-22T10:05:07.839Z,2.70
2022-08-22T10:08:05.988Z,2.80
2022-08-22T10:11:07.042Z,2.80
2022-08-22T10:13:57.239Z,2.53
2022-08-22T10:16:43.691Z,2.75
2022-08-22T10:19:19.777Z,2.70
2022-08-22T10:22:15.669Z,2.53
2022-08-22T10:24:49.255Z,3.00
2022-08-22T10:27:28.943Z,2.70
2022-08-22T10:30:08.357Z,2.80
2022-08-22T10:32:43.162Z,2.83
2022-08-22T10:35:22.555Z,2.80
2022-08-22T10:37:59.630Z,2.60
2022-08-22T10:40:34.015Z,2.50
2022-08-22T10:43:13.845Z,2.60
2022-08-22T10:45:47.366Z,2.65
2022-08-22T10:48:34.162Z,2.78
2022-08-22T10:51:17.112Z,2.75
2022-08-22T10:53:59.629Z,2.53
2022-08-22T10:56:34.623Z,2.67
2022-08-22T10:59:22.901Z,2.42
2022-08-22T11:02:12.775Z,2.30
2022-08-22T11:05:01.130Z,2.20
2022-08-22T11:07:50.062Z,2.47
2022-08-22T11:10:28.706Z,2.50
2022-08-22T11:13:12.597Z,2.55
2022-08-22T11:16:08.999Z,2.38
2022-08-22T11:19:03.023Z,2.40
2022-08-22T11:21:46.185Z,2.30
2022-08-22T11:24:46.563Z,2.40
2022-08-22T11:27:39.850Z,2.38
2022-08-22T11:30:18.575Z,1.88
2022-08-22T11:33:15.922Z,2.22
2022-08-22T11:35:54.113Z,2.40
2022-08-22T11:38:36.196Z,2.30
2022-08-22T11:41:14.083Z,2.20
2022-08-22T11:43:57.423Z,2.28
2022-08-22T11:46:31.210Z,2.40
2022-08-22T11:49:18.955Z,2.50
2022-08-22T11:52:18.170Z,2.38
2022-08-22T11:55:11.664Z,2.30
2022-08-22T11:57:44.788Z,2.35
2022-08-22T12:00:30.278Z,2.47
2022-08-22T12:03:43.136Z,2.20
2022-08-22T12:06:34.879Z,3.10
2022-08-22T12:09:29.879Z,2.40
2022-08-22T12:12:15.802Z,2.33
2022-08-22T12:14:51.161Z,2.70
2022-08-22T12:17:50.882Z,2.58
2022-08-22T12:20:47.821Z,2.40
2022-08-22T12:23:43.327Z,2.38
2022-08-22T12:26:28.678Z,2.40
2022-08-22T12:29:16.735Z,2.33
2022-08-22T12:32:16.676Z,2.17
2022-08-22T12:35:02.622Z,2.03
2022-08-22T12:37:52.812Z,2.35
2022-08-22T12:40:30.931Z,2.05
2022-08-22T12:43:39.959Z,3.22
2022-08-22T12:46:21.118Z,2.22
2022-08-22T12:49:08.137Z,2.50
2022-08-22T12:51:50.594Z,2.17
2022-08-22T12:54:48.048Z,2.20
2022-08-22T12:57:27.967Z,1.90
2022-08-22T13:00:03.933Z,2.08
2022-08-22T13:02:40.621Z,2.40
2022-08-22T13:05:19.980Z,2.08
2022-08-22T13:07:54.662Z,2.50
2022-08-22T13:10:42.226Z,2.13
2022-08-22T13:13:17.444Z,1.98
2022-08-22T13:16:04.649Z,2.13
2022-08-22T13:18:44.623Z,2.03
2022-08-22T13:21:20.651Z,2.50
2022-08-22T13:23:54.617Z,2.00
2022-08-22T13:26:33.983Z,1.73
2022-08-22T13:29:25.323Z,2.10
2022-08-22T13:31:59.456Z,2.03
2022-08-22T13:34:40.531Z,2.20
2022-08-22T13:37:16.808Z,2.00
2022-08-22T13:39:50.043Z,2.50
2022-08-22T13:42:30.470Z,2.20
2022-08-22T13:45:03.124Z,2.00
2022-08-22T13:47:39.654Z,2.05
2022-08-22T13:50:15.573Z,2.00
2022-08-22T13:52:54.949Z,2.50
2022-08-22T13:55:31.270Z,3.05
2022-08-22T13:58:07.557Z,2.25
2022-08-22T14:01:17.973Z,2.70
2022-08-22T14:03:51.253Z,2.47
2022-08-22T14:06:35.483Z,2.67
2022-08-22T14:09:31.299Z,1.95
2022-08-22T14:12:12.114Z,3.10
2022-08-22T14:14:46.001Z,2.47
2022-08-22T14:17:19.745Z,2.65
2022-08-22T14:19:58.907Z,2.60
2022-08-22T14:22:35.500Z,2.05
2022-08-22T14:25:10.246Z,2.67
2022-08-22T14:27:45.920Z,2.10
2022-08-22T14:30:18.900Z,2.00
2022-08-22T14:32:51.787Z,2.20
2022-08-22T14:35:35.024Z,2.15
2022-08-22T14:38:29.737Z,2.20
2022-08-22T14:41:03.487Z,2.00
2022-08-22T14:43:53.202Z,1.77
2022-08-22T14:46:26.882Z,2.00
2022-08-22T14:49:28.753Z,2.03
2022-08-22T14:52:06.175Z,2.10
2022-08-22T14:54:37.425Z,2.13
2022-08-22T14:57:10.853Z,2.00
2022-08-22T14:59:51.719Z,2.22
2022-08-22T15:02:27.911Z,2.00
2022-08-22T15:04:57.465Z,2.33
2022-08-22T15:07:29.805Z,1.85
2022-08-22T15:10:07.598Z,2.47
2022-08-22T15:12:46.949Z,2.20
2022-08-22T15:15:29.071Z,2.15
2022-08-22T15:17:57.843Z,2.42
2022-08-22T15:20:35.638Z,2.10
2022-08-22T15:23:09.701Z,2.00
2022-08-22T15:25:42.540Z,1.92
2022-08-22T15:28:20.868Z,2.13
2022-08-22T15:31:03.806Z,1.95
2022-08-22T15:33:34.696Z,1.88
2022-08-22T15:36:16.378Z,1.90
2022-08-22T15:38:48.155Z,2.00
2022-08-22T15:41:41.622Z,1.77
2022-08-22T15:44:31.131Z,1.80
2022-08-22T15:47:10.882Z,1.63
2022-08-22T15:49:53.383Z,1.88
2022-08-22T15:52:26.041Z,1.85
2022-08-22T15:55:23.925Z,1.98
2022-08-22T15:58:04.800Z,1.90
2022-08-22T16:00:43.441Z,1.90
2022-08-22T16:03:24.752Z,1.98
2022-08-22T16:05:55.780Z,2.00
2022-08-22T16:08:33.133Z,1.88
2022-08-22T16:11:27.559Z,2.00
2022-08-22T16:14:32.755Z,2.00
2022-08-22T16:17:05.731Z,2.35
2022-08-22T16:19:38.445Z,1.70
2022-08-22T16:22:15.205Z,1.85
2022-08-22T16:25:03.610Z,1.85
2022-08-22T16:27:35.414Z,2.22
2022-08-22T16:30:14.791Z,1.80
2022-08-22T16:32:57.466Z,2.10
2022-08-22T16:36:22.672Z,1.95
2022-08-22T16:38:53.957Z,1.77
2022-08-22T16:41:36.301Z,2.17
2022-08-22T16:44:34.304Z,2.45
2022-08-22T16:47:15.198Z,1.70
2022-08-22T16:50:02.281Z,2.00
2022-08-22T16:52:55.618Z,1.90
2022-08-22T16:55:48.260Z,2.20
2022-08-22T16:58:57.905Z,1.90
2022-08-22T17:01:42.016Z,1.85
2022-08-22T17:04:21.480Z,1.60
2022-08-22T17:07:11.846Z,1.90
2022-08-22T17:10:01.943Z,1.70
2022-08-22T17:12:46.941Z,1.90
2022-08-22T17:15:28.452Z,1.75
2022-08-22T17:18:15.371Z,2.10
2022-08-22T17:20:53.083Z,1.85
2022-08-22T17:23:36.220Z,1.77
2022-08-22T17:26:22.140Z,2.15
2022-08-22T17:29:08.239Z,1.73
2022-08-22T17:31:47.877Z,2.08
2022-08-22T17:34:30.399Z,2.08
2022-08-22T17:37:09.897Z,1.88
2022-08-22T17:40:08.041Z,1.58
2022-08-22T17:42:55.709Z,1.95
2022-08-22T17:45:34.876Z,1.60
2022-08-22T17:48:09.374Z,1.65
2022-08-22T17:50:44.475Z,2.17
2022-08-22T17:53:23.792Z,1.90
2022-08-22T17:56:20.499Z,1.90
2022-08-22T17:58:55.686Z,1.90
2022-08-22T18:01:40.882Z,3.78
2022-08-22T18:04:15.831Z,2.10
2022-08-22T18:06:49.513Z,2.15
2022-08-22T18:09:36.010Z,2.15
2022-08-22T18:12:16.179Z,2.00
2022-08-22T18:14:52.629Z,2.50
2022-08-22T18:17:29.567Z,2.35
2022-08-22T18:20:07.985Z,2.60
2022-08-22T18:22:45.806Z,2.47
2022-08-22T18:25:36.827Z,2.53
2022-08-22T18:28:14.613Z,2.38
2022-08-22T18:30:56.389Z,2.28
2022-08-22T18:33:35.222Z,2.25
2022-08-22T18:36:11.948Z,2.10
2022-08-22T18:38:51.281Z,2.67
2022-08-22T18:41:27.724Z,3.15
2022-08-22T18:43:59.460Z,2.83
2022-08-22T18:46:43.004Z,2.58
2022-08-22T18:49:34.743Z,3.15
2022-08-22T18:52:29.337Z,3.45
2022-08-22T18:55:16.815Z,2.58
2022-08-22T18:58:14.298Z,2.40
2022-08-22T19:01:02.259Z,2.30
2022-08-22T19:03:44.857Z,2.22
2022-08-22T19:06:38.296Z,2.40
2022-08-22T19:09:34.214Z,2.20
2022-08-22T19:12:13.142Z,2.17
2022-08-22T19:15:07.606Z,2.10
2022-08-22T19:17:58.743Z,2.40
2022-08-22T19:20:49.601Z,2.20
2022-08-22T19:23:49.477Z,2.20
2022-08-22T19:26:40.480Z,2.10
2022-08-22T19:29:49.990Z,2.20
2022-08-22T19:32:55.732Z,2.22
2022-08-22T19:35:28.209Z,2.40
2022-08-22T19:38:00.615Z,2.42
2022-08-22T19:41:04.878Z,2.25
2022-08-22T19:43:38.269Z,2.47
2022-08-22T19:46:11.278Z,2.55
2022-08-22T19:48:51.235Z,2.35
2022-08-22T19:51:30.640Z,2.30
2022-08-22T19:54:18.265Z,2.17
2022-08-22T19:57:06.661Z,2.20
2022-08-22T19:59:51.313Z,2.35
2022-08-22T20:02:35.419Z,2.35
2022-08-22T20:05:27.822Z,2.28
2022-08-22T20:08:25.499Z,2.40
2022-08-22T20:11:05.445Z,2.50
2022-08-22T20:13:37.100Z,2.40
2022-08-22T20:16:44.519Z,2.13
2022-08-22T20:19:31.114Z,2.10
2022-08-22T20:22:05.034Z,2.95
2022-08-22T20:24:40.520Z,2.40
2022-08-22T20:27:16.003Z,2.83
2022-08-22T20:29:51.378Z,2.80
2022-08-22T20:32:28.793Z,2.45
2022-08-22T20:35:05.936Z,3.10
2022-08-22T20:38:05.449Z,3.47
2022-08-22T20:40:55.324Z,3.20
2022-08-22T20:43:34.504Z,3.28
2022-08-22T20:46:17.990Z,2.70
2022-08-22T20:48:52.237Z,3.10
2022-08-22T20:51:26.339Z,2.58
2022-08-22T20:53:57.026Z,2.85
2022-08-22T20:56:53.961Z,2.53
2022-08-22T21:02:33.800Z,1.98
2022-08-22T21:08:06.698Z,2.28
2022-08-22T21:10:58.193Z,2.13
2022-08-22T21:13:30.237Z,1.88
2022-08-22T21:16:03.455Z,2.05
2022-08-22T21:18:37.659Z,2.30
2022-08-22T21:21:16.973Z,2.20
2022-08-22T21:23:49.255Z,2.17
2022-08-22T21:26:24.675Z,2.13
2022-08-22T21:29:02.450Z,2.15
2022-08-22T21:31:36.158Z,2.08
2022-08-22T21:34:06.839Z,1.83
2022-08-22T21:36:47.668Z,2.13
2022-08-22T21:39:26.077Z,1.90
2022-08-22T21:42:15.419Z,2.13
2022-08-22T21:44:57.784Z,1.85
2022-08-22T21:47:37.233Z,1.90
2022-08-22T21:50:26.781Z,1.90
2022-08-22T21:53:10.139Z,2.10
2022-08-22T21:55:43.761Z,2.05
2022-08-22T21:58:37.206Z,2.10
2022-08-22T22:01:29.700Z,2.13
2022-08-22T22:04:01.148Z,1.73
2022-08-22T22:06:32.494Z,1.98
2022-08-22T22:09:01.008Z,2.30
2022-08-22T22:11:38.175Z,2.67
2022-08-22T22:14:09.620Z,2.88
2022-08-22T22:16:41.085Z,2.25
2022-08-22T22:19:10.664Z,2.28
2022-08-22T22:21:42.355Z,2.20
2022-08-22T22:24:22.314Z,2.30
2022-08-22T22:26:51.020Z,2.20
2022-08-22T22:29:19.813Z,2.03
2022-08-22T22:31:50.358Z,2.15
2022-08-22T22:34:19.948Z,1.92
2022-08-22T22:36:58.688Z,1.90
2022-08-22T22:39:31.125Z,2.00
2022-08-22T22:42:00.309Z,2.00
2022-08-22T22:44:30.079Z,2.17
2022-08-22T22:47:04.980Z,1.77
2022-08-22T22:49:43.582Z,2.28
2022-08-22T22:52:14.977Z,1.95
2022-08-22T22:54:47.846Z,2.40
2022-08-22T22:57:25.323Z,2.00
2022-08-22T22:59:56.111Z,2.00
2022-08-22T23:02:27.539Z,1.92
2022-08-22T23:04:57.687Z,1.85
2022-08-22T23:07:28.654Z,2.30
2022-08-22T23:10:05.297Z,1.88
2022-08-22T23:12:39.843Z,1.90
2022-08-22T23:15:10.955Z,3.65
2022-08-22T23:17:44.619Z,2.13
2022-08-22T23:20:21.918Z,2.53
2022-08-22T23:22:51.978Z,2.50
2022-08-22T23:25:27.835Z,2.30
2022-08-22T23:27:58.794Z,2.42
2022-08-22T23:30:27.246Z,2.25
2022-08-22T23:32:57.215Z,1.80
2022-08-22T23:35:27.129Z,2.40
2022-08-22T23:37:58.771Z,2.08
2022-08-22T23:40:29.546Z,2.10
2022-08-22T23:42:59.525Z,2.10
2022-08-22T23:45:37.427Z,1.90
2022-08-22T23:48:07.325Z,1.77
2022-08-22T23:50:39.131Z,2.10
2022-08-22T23:53:10.609Z,2.20
2022-08-22T23:55:40.144Z,2.10
2022-08-22T23:58:10.244Z,1.90
